Time;durP1;ratioP1;P1;durP2;ratioP2;P2;SDS_P1;SDS_P2;PMS_P1;PMS_P2;Temp;Humidity;BMP_temperature;BMP_pressure;BME280_temperature;BME280_humidity;BME280_pressure;Samples;Min_cycle;Max_cycle;Signal;HPM_P1;HPM_P2
2021/01/26 00:01:12;;;;;;;12.15;5.93;;;3.10;96.90;;;;;;5091502;28;20048;-71
2021/01/26 00:03:39;;;;;;;13.30;6.00;;;3.00;96.80;;;;;;5091208;28;20048;-73
2021/01/26 00:06:06;;;;;;;11.75;5.22;;;3.00;96.50;;;;;;5089813;28;20128;-74
2021/01/26 00:08:33;;;;;;;12.65;5.53;;;3.00;96.50;;;;;;5107163;28;20447;-74
2021/01/26 00:11:00;;;;;;;9.35;5.50;;;3.10;96.60;;;;;;5108039;28;20131;-73
2021/01/26 00:13:27;;;;;;;9.15;5.18;;;3.20;96.20;;;;;;5107248;28;20100;-73
2021/01/26 00:15:53;;;;;;;10.70;6.20;;;3.00;95.80;;;;;;5104783;28;20409;-73
2021/01/26 00:18:20;;;;;;;12.90;6.97;;;3.10;95.50;;;;;;5107764;28;20048;-74
2021/01/26 00:20:47;;;;;;;10.25;5.93;;;3.10;95.60;;;;;;5108637;28;20435;-75
2021/01/26 00:23:15;;;;;;;11.43;6.07;;;3.10;95.50;;;;;;5106487;28;20093;-74
2021/01/26 00:25:42;;;;;;;12.75;6.35;;;3.10;95.30;;;;;;5106911;28;20044;-73
2021/01/26 00:28:11;;;;;;;12.15;6.10;;;3.40;95.50;;;;;;5106787;28;20043;-74
2021/01/26 00:30:39;;;;;;;9.55;5.22;;;3.00;95.50;;;;;;5113686;28;20075;-75
2021/01/26 00:33:18;;;;;;;10.95;6.20;;;3.10;95.30;;;;;;5112391;28;20075;-74
2021/01/26 00:35:45;;;;;;;13.05;6.07;;;3.10;95.60;;;;;;5107505;27;20069;-73
2021/01/26 00:38:12;;;;;;;14.00;6.90;;;3.00;95.20;;;;;;5104938;28;20438;-74
2021/01/26 00:40:39;;;;;;;11.35;6.38;;;3.00;95.50;;;;;;5111517;28;20082;-73
2021/01/26 00:43:08;;;;;;;14.75;6.43;;;3.00;95.40;;;;;;5107800;28;20055;-74
2021/01/26 00:45:34;;;;;;;11.25;6.38;;;3.00;95.60;;;;;;5114332;28;20501;-73
2021/01/26 00:48:01;;;;;;;13.82;6.15;;;3.00;95.60;;;;;;5112338;28;20532;-74
2021/01/26 00:50:27;;;;;;;12.27;6.60;;;3.00;95.70;;;;;;5110400;28;20048;-75
2021/01/26 00:52:55;;;;;;;18.75;7.22;;;3.00;95.70;;;;;;5114406;28;20466;-74
2021/01/26 00:55:23;;;;;;;13.90;6.57;;;3.00;95.80;;;;;;5109817;28;20163;-74
2021/01/26 00:57:50;;;;;;;12.48;6.70;;;3.20;95.80;;;;;;5102936;28;20086;-76
2021/01/26 01:00:22;;;;;;;16.23;7.55;;;3.00;96.00;;;;;;5114619;28;20139;-74
2021/01/26 01:02:49;;;;;;;15.05;7.65;;;3.00;96.10;;;;;;5107130;28;20075;-74
2021/01/26 01:05:16;;;;;;;16.52;7.93;;;3.10;96.20;;;;;;5109166;27;20051;-74
2021/01/26 01:07:42;;;;;;;14.65;7.18;;;2.90;96.30;;;;;;5112066;28;20048;-74
2021/01/26 01:10:11;;;;;;;17.23;8.77;;;2.70;96.50;;;;;;5111861;28;20134;-74
2021/01/26 01:12:37;;;;;;;15.15;7.95;;;2.90;97.10;;;;;;5101071;27;20563;-74
2021/01/26 01:15:06;;;;;;;19.17;7.45;;;3.20;97.00;;;;;;5114766;28;20048;-74
2021/01/26 01:17:33;;;;;;;17.58;8.43;;;2.80;97.00;;;;;;5110466;28;20467;-72
2021/01/26 01:19:59;;;;;;;17.60;7.95;;;3.00;97.30;;;;;;5104767;28;20158;-74
2021/01/26 01:22:26;;;;;;;15.65;8.38;;;2.90;97.20;;;;;;5110110;28;20048;-74
2021/01/26 01:24:52;;;;;;;19.58;8.93;;;2.90;97.30;;;;;;5105838;27;20123;-73
2021/01/26 01:27:19;;;;;;;17.00;7.68;;;3.00;97.10;;;;;;5104832;28;20506;-73
2021/01/26 01:29:45;;;;;;;20.15;8.65;;;3.00;97.00;;;;;;5110182;28;20067;-73
2021/01/26 01:32:11;;;;;;;21.40;8.07;;;2.90;97.00;;;;;;5105933;28;20052;-74
2021/01/26 01:34:38;;;;;;;18.30;8.52;;;3.00;97.00;;;;;;5112879;28;20116;-72
2021/01/26 01:37:04;;;;;;;18.00;8.55;;;2.80;97.30;;;;;;5102809;28;20051;-74
2021/01/26 01:39:30;;;;;;;15.20;7.88;;;3.00;97.20;;;;;;5103738;28;20043;-74
2021/01/26 01:41:56;;;;;;;20.05;8.98;;;3.20;97.30;;;;;;5109973;28;20098;-73
2021/01/26 01:44:23;;;;;;;22.17;8.20;;;3.00;97.00;;;;;;5110737;28;20044;-73
2021/01/26 01:46:57;;;;;;;16.63;8.23;;;3.00;96.90;;;;;;5111063;28;20127;-74
2021/01/26 01:49:30;;;;;;;16.55;7.97;;;3.00;97.00;;;;;;5107218;28;20402;-74
2021/01/26 01:51:57;;;;;;;16.48;7.78;;;3.00;97.20;;;;;;5102845;28;20052;-74
2021/01/26 01:54:31;;;;;;;19.48;8.32;;;3.10;97.20;;;;;;5112114;28;20461;-74
2021/01/26 01:57:32;;;;;;;16.17;8.00;;;3.10;97.50;;;;;;5109693;27;20455;-73
2021/01/26 02:00:18;;;;;;;;;;;3.10;97.60;;;;;;5108791;28;20086;-72
2021/01/26 02:02:52;;;;;;;16.33;7.90;;;3.00;97.70;;;;;;5103074;28;19958;-73
2021/01/26 02:05:19;;;;;;;18.95;8.48;;;3.00;98.10;;;;;;5110085;28;20048;-74
2021/01/26 02:07:46;;;;;;;21.33;9.45;;;3.20;97.80;;;;;;5108990;28;20394;-74
2021/01/26 02:10:12;;;;;;;19.90;8.23;;;3.00;98.50;;;;;;5100016;28;20475;-73
2021/01/26 02:12:39;;;;;;;18.08;8.40;;;3.10;98.30;;;;;;5106663;28;20123;-74
2021/01/26 02:15:08;;;;;;;16.35;8.40;;;3.00;98.10;;;;;;5108819;28;20494;-74
2021/01/26 02:18:05;;;;;;;15.85;8.30;;;2.90;98.50;;;;;;5110799;28;20143;-74
2021/01/26 02:21:01;;;;;;;18.50;8.32;;;3.20;98.60;;;;;;5107995;28;20051;-75
2021/01/26 02:23:55;;;;;;;18.95;8.25;;;2.80;98.40;;;;;;5108389;28;20492;-74
2021/01/26 02:26:53;;;;;;;16.98;8.55;;;2.80;98.50;;;;;;5108214;28;20395;-74
2021/01/26 02:29:45;;;;;;;18.13;8.35;;;3.00;98.80;;;;;;5111014;28;20109;-74
2021/01/26 02:32:33;;;;;;;16.67;7.32;;;3.30;98.30;;;;;;5090687;28;20141;-74
2021/01/26 02:35:18;;;;;;;15.68;7.05;;;3.10;97.60;;;;;;5106629;28;20051;-74
2021/01/26 02:38:12;;;;;;;17.85;8.18;;;3.10;96.90;;;;;;5099754;28;20083;-74
2021/01/26 02:41:12;;;;;;;19.88;8.45;;;3.10;96.80;;;;;;5106921;28;20090;-75
2021/01/26 02:43:52;;;;;;;17.02;7.85;;;3.30;96.90;;;;;;5109016;28;20093;-74
2021/01/26 02:46:39;;;;;;;;;;;3.20;96.70;;;;;;5107626;28;20459;-74
2021/01/26 02:49:16;;;;;;;22.25;7.57;;;3.20;96.70;;;;;;5098775;27;19920;-74
2021/01/26 02:51:50;;;;;;;15.68;7.40;;;3.10;96.80;;;;;;5110998;28;20082;-74
2021/01/26 02:54:43;;;;;;;20.30;8.10;;;3.10;97.00;;;;;;5107436;28;20513;-75
2021/01/26 02:57:22;;;;;;;14.07;7.45;;;3.10;96.90;;;;;;5104566;28;20086;-75
2021/01/26 02:59:57;;;;;;;17.70;7.60;;;3.10;96.80;;;;;;5109858;28;20433;-74
2021/01/26 03:02:35;;;;;;;17.38;8.32;;;2.90;96.90;;;;;;5105525;28;20092;-74
2021/01/26 03:05:15;;;;;;;18.27;7.70;;;3.10;97.10;;;;;;5109709;28;20474;-74
2021/01/26 03:07:51;;;;;;;17.70;8.38;;;3.20;97.10;;;;;;5110173;28;20431;-74
2021/01/26 03:10:22;;;;;;;15.18;7.88;;;3.20;97.50;;;;;;5105573;28;20055;-71
2021/01/26 03:12:57;;;;;;;17.20;8.35;;;3.50;97.90;;;;;;5110035;28;20079;-74
2021/01/26 03:15:46;;;;;;;17.38;8.25;;;3.30;97.50;;;;;;5112177;28;20448;-74
2021/01/26 03:18:16;;;;;;;15.32;7.30;;;3.00;97.60;;;;;;5105638;28;20043;-73
2021/01/26 03:20:45;;;;;;;;;;;3.20;97.40;;;;;;5101484;28;20039;-73
2021/01/26 03:23:19;;;;;;;14.23;6.43;;;3.20;97.30;;;;;;5110299;28;20010;-74
2021/01/26 03:25:53;;;;;;;16.80;6.15;;;3.40;97.20;;;;;;5106716;28;20097;-73
2021/01/26 03:28:23;;;;;;;16.02;6.97;;;3.30;97.00;;;;;;5105379;28;20432;-74
2021/01/26 03:30:52;;;;;;;17.98;6.85;;;3.30;97.20;;;;;;5106042;28;20134;-74
2021/01/26 03:33:22;;;;;;;18.88;6.20;;;3.50;97.20;;;;;;5108395;28;20075;-74
2021/01/26 03:35:48;;;;;;;;;;;3.20;97.10;;;;;;5111818;28;20356;-74
2021/01/26 03:38:21;;;;;;;15.23;7.00;;;3.30;97.20;;;;;;5107989;28;19971;-74
2021/01/26 03:40:50;;;;;;;13.52;6.63;;;3.20;97.20;;;;;;5105621;28;20099;-74
2021/01/26 03:43:17;;;;;;;14.27;6.65;;;3.30;97.40;;;;;;5111594;28;20140;-75
2021/01/26 03:45:46;;;;;;;15.77;6.78;;;3.40;97.30;;;;;;5106364;28;20134;-74
2021/01/26 03:48:58;;;;;;;13.77;6.28;;;3.40;97.00;;;;;;5109095;28;20097;-74
2021/01/26 03:51:55;;;;;;;13.25;7.15;;;3.20;97.10;;;;;;5094554;28;20047;-75
2021/01/26 03:54:43;;;;;;;13.77;6.57;;;3.50;97.30;;;;;;5102891;28;20052;-75
2021/01/26 03:57:28;;;;;;;8.23;4.55;;;3.40;97.40;;;;;;5104947;28;20081;-75
2021/01/26 04:00:10;;;;;;;13.45;6.65;;;3.40;97.30;;;;;;5107638;28;20051;-72
2021/01/26 04:02:55;;;;;;;14.98;6.43;;;3.30;97.60;;;;;;5109328;28;20059;-75
2021/01/26 04:05:37;;;;;;;14.15;6.85;;;3.30;97.40;;;;;;5110881;27;20476;-74
2021/01/26 04:08:40;;;;;;;14.00;7.05;;;3.30;97.50;;;;;;5105086;28;20490;-74
2021/01/26 04:11:06;;;;;;;15.40;6.50;;;3.70;97.60;;;;;;5104990;28;20082;-72
2021/01/26 04:13:41;;;;;;;14.05;4.72;;;3.60;97.60;;;;;;5109028;28;20079;-74
2021/01/26 04:16:07;;;;;;;13.05;6.63;;;3.70;97.50;;;;;;5109592;28;20067;-74
2021/01/26 04:18:39;;;;;;;14.40;6.88;;;3.70;97.60;;;;;;5112430;28;20047;-74
2021/01/26 04:21:08;;;;;;;13.95;5.65;;;3.50;97.40;;;;;;5111128;28;20076;-74
2021/01/26 04:23:35;;;;;;;13.13;5.55;;;3.60;97.40;;;;;;5110896;28;20047;-73
2021/01/26 04:26:07;;;;;;;7.00;3.55;;;3.50;97.20;;;;;;5112040;28;20067;-73
2021/01/26 04:28:41;;;;;;;10.05;3.90;;;3.50;97.20;;;;;;5106449;28;20124;-73
2021/01/26 04:31:09;;;;;;;14.73;6.65;;;3.70;97.20;;;;;;5108660;28;20401;-73
2021/01/26 04:33:37;;;;;;;14.18;6.15;;;3.50;97.40;;;;;;5113787;28;20052;-73
2021/01/26 04:36:04;;;;;;;12.52;5.50;;;3.50;97.30;;;;;;5108943;28;20081;-74
2021/01/26 04:38:30;;;;;;;13.32;5.50;;;3.70;97.40;;;;;;5114044;28;20040;-74
2021/01/26 04:41:19;;;;;;;12.45;5.72;;;3.50;97.30;;;;;;5111429;28;20043;-73
2021/01/26 04:44:19;;;;;;;17.63;6.60;;;3.70;97.40;;;;;;5110497;28;20051;-73
2021/01/26 04:46:54;;;;;;;15.30;5.82;;;3.70;97.50;;;;;;5104862;28;20040;-73
2021/01/26 04:49:49;;;;;;;13.55;5.57;;;3.40;97.30;;;;;;5110714;28;20483;-75
2021/01/26 04:52:46;;;;;;;13.50;5.57;;;3.50;97.30;;;;;;5109773;28;20052;-73
2021/01/26 04:55:16;;;;;;;15.00;4.70;;;3.70;97.50;;;;;;5109720;28;20079;-73
2021/01/26 04:57:48;;;;;;;16.23;5.57;;;3.80;97.50;;;;;;5109224;28;20078;-74
2021/01/26 05:00:34;;;;;;;15.15;6.53;;;3.70;97.50;;;;;;5104687;28;20047;-73
2021/01/26 05:03:35;;;;;;;12.52;5.20;;;3.50;97.50;;;;;;5105680;28;20070;-73
2021/01/26 05:06:04;;;;;;;13.65;5.78;;;3.60;97.20;;;;;;5109209;28;20039;-75
2021/01/26 05:08:35;;;;;;;13.45;5.88;;;3.70;97.40;;;;;;5110559;28;20096;-74
2021/01/26 05:11:12;;;;;;;12.15;5.63;;;3.60;97.40;;;;;;5102195;28;20051;-74
2021/01/26 05:13:41;;;;;;;11.68;5.57;;;3.70;97.40;;;;;;5110218;28;20047;-74
2021/01/26 05:16:15;;;;;;;13.88;5.13;;;3.60;97.20;;;;;;5107305;28;20130;-74
2021/01/26 05:19:08;;;;;;;16.05;5.70;;;3.60;97.10;;;;;;5110298;28;20052;-74
2021/01/26 05:21:44;;;;;;;12.43;5.25;;;3.80;97.40;;;;;;5077104;28;20436;-73
2021/01/26 05:24:26;;;;;;;12.13;5.65;;;3.40;97.10;;;;;;5109416;28;20072;-74
2021/01/26 05:26:52;;;;;;;11.30;5.22;;;3.80;97.30;;;;;;5109805;28;20055;-75
2021/01/26 05:29:19;;;;;;;13.25;5.57;;;3.60;97.00;;;;;;5110705;28;20126;-74
2021/01/26 05:31:57;;;;;;;10.00;5.05;;;3.70;96.90;;;;;;5102481;28;20139;-74
2021/01/26 05:34:25;;;;;;;13.25;4.95;;;3.70;97.00;;;;;;5104436;28;20142;-74
2021/01/26 05:36:51;;;;;;;12.13;4.88;;;3.60;97.10;;;;;;5106752;28;20047;-74
2021/01/26 05:39:43;;;;;;;10.23;4.72;;;3.70;96.90;;;;;;5109746;28;20138;-74
2021/01/26 05:42:12;;;;;;;10.63;4.60;;;3.90;96.80;;;;;;5100571;28;20135;-74
2021/01/26 05:44:41;;;;;;;7.47;4.10;;;3.90;96.90;;;;;;5111727;28;20479;-74
2021/01/26 05:47:28;;;;;;;17.23;5.72;;;3.70;96.60;;;;;;5110386;28;20441;-74
2021/01/26 05:49:55;;;;;;;12.45;5.28;;;3.80;96.50;;;;;;5107842;28;20082;-73
2021/01/26 05:52:32;;;;;;;7.50;4.10;;;3.80;96.40;;;;;;5111625;28;20474;-73
2021/01/26 05:54:59;;;;;;;13.35;5.05;;;3.90;96.20;;;;;;5105490;28;20075;-73
2021/01/26 05:57:32;;;;;;;9.65;4.32;;;3.90;96.30;;;;;;5105408;28;20051;-74
2021/01/26 06:00:12;;;;;;;10.43;4.68;;;3.90;96.20;;;;;;5104901;28;20128;-72
2021/01/26 06:02:38;;;;;;;8.77;4.32;;;3.90;96.10;;;;;;5110263;28;20482;-74
2021/01/26 06:05:14;;;;;;;13.40;4.00;;;3.90;96.10;;;;;;5108320;28;20040;-73
2021/01/26 06:07:40;;;;;;;9.80;3.35;;;4.00;96.00;;;;;;5113010;28;20075;-73
2021/01/26 06:10:20;;;;;;;10.10;4.07;;;3.80;95.80;;;;;;5109702;28;20078;-73
2021/01/26 06:12:55;;;;;;;10.68;4.40;;;4.00;95.80;;;;;;5107671;28;20051;-73
2021/01/26 06:15:26;;;;;;;14.70;4.45;;;3.90;95.80;;;;;;5102849;28;20489;-74
2021/01/26 06:18:15;;;;;;;7.38;3.38;;;4.20;96.00;;;;;;5107212;28;20134;-73
2021/01/26 06:20:42;;;;;;;9.48;3.65;;;4.20;95.60;;;;;;5109502;28;20126;-73
2021/01/26 06:23:26;;;;;;;8.85;4.05;;;4.00;95.70;;;;;;5111891;28;20089;-75
2021/01/26 06:25:57;;;;;;;8.93;3.03;;;3.90;95.70;;;;;;5097037;28;20048;-72
2021/01/26 06:28:23;;;;;;;13.52;4.18;;;4.20;95.90;;;;;;5103874;28;20079;-74
2021/01/26 06:31:26;;;;;;;11.82;3.92;;;4.00;95.90;;;;;;5103839;28;20073;-74
2021/01/26 06:34:46;;;;;;;6.15;3.08;;;4.20;96.10;;;;;;5104878;28;20126;-74
2021/01/26 06:37:35;;;;;;;9.48;3.88;;;4.10;95.90;;;;;;5046463;28;20056;-74
2021/01/26 06:40:15;;;;;;;9.48;3.88;;;4.30;96.10;;;;;;5099434;28;20136;-74
2021/01/26 06:43:02;;;;;;;6.20;3.17;;;3.90;95.90;;;;;;5104932;28;20495;-72
2021/01/26 06:45:46;;;;;;;11.88;3.80;;;4.00;95.70;;;;;;5105103;28;20048;-74
2021/01/26 06:48:50;;;;;;;6.25;3.22;;;4.00;96.00;;;;;;5106300;28;20056;-74
2021/01/26 06:51:32;;;;;;;8.63;3.00;;;4.00;95.80;;;;;;5097392;28;20044;-72
2021/01/26 06:54:36;;;;;;;9.48;3.88;;;3.90;95.90;;;;;;5102735;28;20060;-73
2021/01/26 06:57:11;;;;;;;6.75;3.13;;;3.90;95.90;;;;;;5108029;28;20079;-73
2021/01/26 07:00:13;;;;;;;7.78;3.42;;;3.90;96.10;;;;;;5107183;28;20043;-74
2021/01/26 07:03:14;;;;;;;14.98;4.32;;;3.80;95.80;;;;;;5105093;28;20127;-75
2021/01/26 07:06:01;;;;;;;7.03;3.50;;;4.20;96.00;;;;;;5110010;28;20506;-74
2021/01/26 07:09:02;;;;;;;8.95;3.90;;;4.00;95.90;;;;;;5104828;28;20079;-74
2021/01/26 07:11:29;;;;;;;8.98;3.35;;;4.20;95.90;;;;;;5102430;28;20079;-74
2021/01/26 07:14:19;;;;;;;5.53;3.53;;;4.00;95.70;;;;;;5104598;28;20104;-73
2021/01/26 07:16:54;;;;;;;6.10;2.67;;;4.10;95.80;;;;;;5104111;28;20474;-74
2021/01/26 07:19:50;;;;;;;9.38;3.17;;;4.30;95.80;;;;;;5104657;28;20063;-74
2021/01/26 07:22:28;;;;;;;6.32;2.83;;;4.00;95.30;;;;;;5097633;28;20048;-75
2021/01/26 07:25:24;;;;;;;6.25;3.50;;;4.20;95.20;;;;;;5107495;28;20051;-74
2021/01/26 07:28:09;;;;;;;5.82;2.20;;;4.10;95.20;;;;;;5108628;28;20043;-74
2021/01/26 07:30:51;;;;;;;3.53;1.88;;;4.10;95.00;;;;;;5104765;28;20067;-73
2021/01/26 07:33:58;;;;;;;4.68;2.00;;;4.30;94.90;;;;;;5104202;28;20079;-74
2021/01/26 07:36:33;;;;;;;9.02;2.92;;;4.20;94.90;;;;;;5109623;28;20428;-75
2021/01/26 07:39:27;;;;;;;3.50;1.70;;;4.50;95.10;;;;;;5106766;28;20111;-75
2021/01/26 07:42:01;;;;;;;5.28;2.83;;;4.20;94.80;;;;;;5110886;28;20166;-75
2021/01/26 07:44:45;;;;;;;6.47;2.60;;;4.20;95.00;;;;;;5113829;28;20383;-75
2021/01/26 07:47:37;;;;;;;4.30;1.70;;;4.10;95.00;;;;;;5107508;27;20075;-74
2021/01/26 07:50:24;;;;;;;5.55;2.33;;;4.00;94.80;;;;;;5110121;28;20043;-74
2021/01/26 07:52:56;;;;;;;7.07;2.58;;;4.00;94.90;;;;;;5114123;28;20048;-75
2021/01/26 07:55:32;;;;;;;5.57;2.25;;;4.30;95.20;;;;;;5110882;28;20482;-75
2021/01/26 07:58:11;;;;;;;6.78;2.95;;;4.10;95.20;;;;;;5110902;28;20083;-74
2021/01/26 08:01:04;;;;;;;11.52;2.83;;;4.30;95.50;;;;;;5109292;28;20044;-75
2021/01/26 08:03:31;;;;;;;4.60;2.22;;;4.10;95.40;;;;;;5110452;28;20161;-76
2021/01/26 08:05:59;;;;;;;8.10;2.40;;;4.00;95.30;;;;;;5110158;28;20079;-76
2021/01/26 08:08:39;;;;;;;8.40;2.95;;;4.10;95.30;;;;;;5112304;28;20445;-74
2021/01/26 08:11:21;;;;;;;4.90;2.58;;;4.10;95.30;;;;;;5109041;28;20044;-74
2021/01/26 08:13:58;;;;;;;7.13;2.65;;;4.10;95.50;;;;;;5106149;28;20052;-75
2021/01/26 08:16:43;;;;;;;7.43;2.40;;;4.30;95.60;;;;;;5105375;28;20055;-75
2021/01/26 08:19:32;;;;;;;10.02;2.97;;;4.20;95.50;;;;;;5112980;28;20063;-74
2021/01/26 08:22:12;;;;;;;4.45;2.58;;;4.10;95.10;;;;;;5110047;28;20053;-73
2021/01/26 08:24:39;;;;;;;;;;;4.10;95.20;;;;;;5108513;28;20052;-73
2021/01/26 08:27:37;;;;;;;3.53;2.05;;;4.10;95.20;;;;;;5110568;28;20014;-74
2021/01/26 08:30:08;;;;;;;7.25;2.75;;;4.00;95.00;;;;;;5087971;28;20528;-76
2021/01/26 08:32:34;;;;;;;8.40;2.75;;;4.30;95.10;;;;;;5103876;28;20135;-74
2021/01/26 08:35:05;;;;;;;7.47;2.30;;;4.30;95.20;;;;;;5101743;28;20047;-76
2021/01/26 08:37:43;;;;;;;6.25;2.45;;;4.20;94.90;;;;;;5103974;28;20798;-75
2021/01/26 08:40:41;;;;;;;4.47;1.95;;;4.20;94.80;;;;;;5102552;28;20135;-69
2021/01/26 08:43:08;;;;;;;2.47;1.90;;;4.30;94.40;;;;;;5100975;28;20470;-75
2021/01/26 08:45:36;;;;;;;9.10;2.80;;;4.50;95.80;;;;;;5100917;28;20071;-75
2021/01/26 08:48:20;;;;;;;8.00;2.50;;;4.70;95.20;;;;;;5103645;28;20123;-74
2021/01/26 08:50:52;;;;;;;10.95;2.83;;;4.70;94.60;;;;;;5109872;28;20081;-74
2021/01/26 08:53:26;;;;;;;8.55;2.25;;;4.50;94.50;;;;;;5104364;28;20043;-75
2021/01/26 08:55:58;;;;;;;5.15;2.40;;;4.50;93.90;;;;;;5104668;27;20158;-74
2021/01/26 08:58:46;;;;;;;4.88;1.98;;;4.80;94.30;;;;;;5107821;28;20136;-73
2021/01/26 09:01:40;;;;;;;9.25;2.42;;;4.60;94.00;;;;;;5104500;27;20052;-73
2021/01/26 09:04:13;;;;;;;5.00;2.15;;;4.80;94.10;;;;;;5094860;28;20051;-75
2021/01/26 09:06:42;;;;;;;4.28;2.13;;;4.50;93.30;;;;;;5109147;27;20448;-73
2021/01/26 09:09:21;;;;;;;6.25;1.88;;;4.70;94.00;;;;;;5104250;28;20142;-74
2021/01/26 09:11:56;;;;;;;6.95;2.17;;;4.70;93.20;;;;;;5102612;28;20146;-74
2021/01/26 09:14:45;;;;;;;5.18;1.88;;;4.80;93.10;;;;;;5106943;28;20458;-74
2021/01/26 09:17:12;;;;;;;8.75;2.10;;;4.90;93.30;;;;;;5106071;27;20584;-73
2021/01/26 09:19:44;;;;;;;10.23;1.77;;;4.90;93.40;;;;;;5106102;28;20046;-74
2021/01/26 09:22:31;;;;;;;5.32;2.08;;;4.80;93.10;;;;;;5092020;28;20493;-73
2021/01/26 09:25:26;;;;;;;5.97;2.00;;;4.60;93.00;;;;;;5103532;28;20085;-74
2021/01/26 09:28:03;;;;;;;3.85;2.10;;;4.60;93.20;;;;;;5099647;28;20257;-74
2021/01/26 09:30:30;;;;;;;3.35;1.92;;;4.70;93.00;;;;;;5103884;28;20728;-74
2021/01/26 09:33:13;;;;;;;6.90;2.00;;;4.80;92.90;;;;;;5101699;28;20044;-73
2021/01/26 09:35:46;;;;;;;6.28;1.90;;;4.70;93.00;;;;;;5103160;28;20130;-73
2021/01/26 09:38:24;;;;;;;4.82;1.80;;;4.80;92.90;;;;;;5101635;28;20171;-75
2021/01/26 09:41:00;;;;;;;3.80;2.22;;;4.80;92.20;;;;;;5106693;28;20046;-74
2021/01/26 09:43:35;;;;;;;3.28;1.55;;;4.80;92.20;;;;;;5105365;28;20071;-75
2021/01/26 09:46:05;;;;;;;8.38;2.10;;;5.00;92.00;;;;;;5103736;28;20474;-74
2021/01/26 09:48:43;;;;;;;6.75;2.50;;;4.90;92.00;;;;;;5105652;28;20111;-75
2021/01/26 09:51:37;;;;;;;7.72;2.30;;;4.90;92.30;;;;;;5103105;28;21410;-75
2021/01/26 09:54:06;;;;;;;2.65;1.80;;;4.90;91.90;;;;;;5100322;28;20056;-73
2021/01/26 09:56:38;;;;;;;3.88;1.60;;;4.80;92.00;;;;;;5104521;28;20055;-74
2021/01/26 09:59:10;;;;;;;5.55;1.98;;;4.90;91.90;;;;;;5103025;28;20071;-73
2021/01/26 10:01:39;;;;;;;4.47;2.22;;;4.90;91.70;;;;;;5099375;28;20047;-74
2021/01/26 10:04:07;;;;;;;4.97;1.85;;;5.10;92.20;;;;;;5108663;27;20048;-74
2021/01/26 10:06:34;;;;;;;8.63;2.85;;;5.00;91.30;;;;;;5105037;28;20810;-75
2021/01/26 10:09:17;;;;;;;7.22;2.45;;;4.90;91.50;;;;;;5106516;28;20120;-74
2021/01/26 10:11:43;;;;;;;9.52;2.20;;;4.90;91.90;;;;;;5102303;28;20055;-71
2021/01/26 10:14:19;;;;;;;5.57;1.90;;;5.00;91.70;;;;;;5102117;28;20860;-74
2021/01/26 10:16:51;;;;;;;7.18;1.63;;;5.00;91.10;;;;;;5106525;27;20078;-72
2021/01/26 10:19:25;;;;;;;5.43;1.60;;;5.10;91.30;;;;;;5103070;27;20856;-75
2021/01/26 10:21:54;;;;;;;3.70;1.88;;;5.00;91.20;;;;;;5106239;28;20607;-74
2021/01/26 10:24:27;;;;;;;5.93;2.17;;;5.00;90.90;;;;;;5106896;28;20411;-75
2021/01/26 10:27:11;;;;;;;3.95;1.73;;;4.90;91.50;;;;;;5103331;28;20059;-74
2021/01/26 10:29:43;;;;;;;1.75;1.10;;;5.00;91.20;;;;;;5096604;28;20097;-74
2021/01/26 10:32:33;;;;;;;6.38;1.88;;;5.00;90.60;;;;;;5104212;27;20139;-73
2021/01/26 10:35:00;;;;;;;5.47;1.83;;;5.00;90.70;;;;;;5105069;28;20055;-75
2021/01/26 10:37:30;;;;;;;5.97;1.92;;;5.00;90.90;;;;;;5108101;28;20055;-72
2021/01/26 10:40:13;;;;;;;7.93;2.25;;;4.90;90.80;;;;;;5100371;28;20048;-75
2021/01/26 10:42:44;;;;;;;3.42;1.48;;;4.90;91.20;;;;;;5098005;28;20726;-74
2021/01/26 10:45:11;;;;;;;1.55;1.20;;;5.10;91.20;;;;;;5103551;28;20151;-75
2021/01/26 10:47:40;;;;;;;2.55;1.20;;;4.90;90.70;;;;;;5102315;27;20479;-74
2021/01/26 10:50:14;;;;;;;2.97;1.20;;;5.10;91.50;;;;;;5105351;28;20048;-73
2021/01/26 10:52:48;;;;;;;4.88;1.50;;;5.20;90.60;;;;;;5107031;28;20044;-73
2021/01/26 10:55:21;;;;;;;3.33;1.58;;;5.10;90.50;;;;;;5101709;28;20059;-73
2021/01/26 10:57:49;;;;;;;7.85;2.28;;;5.20;90.60;;;;;;5104144;28;20061;-72
2021/01/26 11:00:22;;;;;;;3.95;1.17;;;5.10;90.30;;;;;;5102123;28;20083;-75
2021/01/26 11:02:53;;;;;;;6.35;1.80;;;5.00;90.30;;;;;;5101009;28;20075;-73
2021/01/26 11:05:21;;;;;;;5.25;1.63;;;5.30;90.50;;;;;;5105435;28;20126;-72
2021/01/26 11:07:47;;;;;;;6.85;1.67;;;5.00;90.20;;;;;;5097531;28;20127;-73
2021/01/26 11:10:14;;;;;;;4.53;1.60;;;5.00;90.10;;;;;;5086241;28;20052;-74
2021/01/26 11:12:41;;;;;;;3.75;1.40;;;5.00;90.20;;;;;;5089587;28;20469;-74
2021/01/26 11:15:18;;;;;;;5.30;1.90;;;5.10;89.30;;;;;;5088796;28;20073;-72
2021/01/26 11:17:45;;;;;;;6.63;1.90;;;5.10;89.00;;;;;;5087693;28;20047;-72
2021/01/26 11:20:12;;;;;;;6.20;2.03;;;5.20;89.90;;;;;;5087124;28;20047;-73
2021/01/26 11:22:38;;;;;;;7.07;1.45;;;5.60;90.10;;;;;;5087880;28;20079;-72
2021/01/26 11:25:07;;;;;;;5.50;1.80;;;5.30;88.70;;;;;;5089429;28;20097;-71
2021/01/26 11:27:34;;;;;;;5.18;1.95;;;5.20;89.10;;;;;;5087453;28;20447;-73
2021/01/26 11:30:02;;;;;;;9.02;2.28;;;5.30;89.20;;;;;;5087074;28;20134;-73
2021/01/26 11:32:31;;;;;;;6.70;1.92;;;5.50;89.50;;;;;;5092704;28;20056;-73
2021/01/26 11:34:58;;;;;;;6.55;1.30;;;5.40;88.20;;;;;;5088699;28;20105;-73
2021/01/26 11:37:24;;;;;;;5.10;2.00;;;5.20;88.30;;;;;;5089837;28;20055;-73
2021/01/26 11:39:50;;;;;;;4.82;1.70;;;5.20;88.40;;;;;;5086439;28;20048;-72
2021/01/26 11:42:17;;;;;;;4.40;1.60;;;5.30;88.60;;;;;;5088584;28;20147;-72
2021/01/26 11:44:44;;;;;;;2.33;1.30;;;5.40;88.10;;;;;;5089049;28;20047;-72
2021/01/26 11:47:11;;;;;;;4.97;1.50;;;5.50;87.40;;;;;;5096664;28;22401;-72
2021/01/26 11:49:37;;;;;;;8.25;1.98;;;5.40;86.70;;;;;;5089399;28;20059;-73
2021/01/26 11:52:04;;;;;;;4.22;1.58;;;5.40;87.50;;;;;;5089705;28;20051;-73
2021/01/26 11:54:30;;;;;;;2.47;1.60;;;5.50;87.30;;;;;;5088530;28;20748;-72
2021/01/26 11:56:57;;;;;;;5.40;1.52;;;5.50;87.20;;;;;;5087444;28;20055;-71
2021/01/26 11:59:23;;;;;;;5.38;1.92;;;5.50;87.40;;;;;;5085816;28;20074;-73
2021/01/26 12:01:52;;;;;;;2.97;1.30;;;5.50;87.10;;;;;;5087069;28;20047;-72
2021/01/26 12:04:20;;;;;;;6.63;1.85;;;5.40;87.50;;;;;;5086760;28;20054;-71
2021/01/26 12:06:46;;;;;;;3.50;1.70;;;5.40;87.20;;;;;;5087036;28;20491;-73
2021/01/26 12:09:13;;;;;;;5.20;1.77;;;5.50;87.20;;;;;;5084270;28;20060;-72
2021/01/26 12:11:39;;;;;;;7.05;1.67;;;5.50;87.20;;;;;;5087193;28;20055;-71
2021/01/26 12:14:07;;;;;;;16.65;2.50;;;5.50;87.40;;;;;;5086423;28;20135;-74
2021/01/26 12:16:34;;;;;;;4.93;1.88;;;5.50;87.10;;;;;;5086122;28;20138;-74
2021/01/26 12:19:01;;;;;;;3.88;1.40;;;5.50;86.60;;;;;;5081174;28;20044;-70
2021/01/26 12:21:27;;;;;;;5.88;1.45;;;5.40;86.20;;;;;;5091054;28;20139;-73
2021/01/26 12:23:54;;;;;;;8.07;2.10;;;5.40;85.90;;;;;;5090451;28;20078;-71
2021/01/26 12:26:21;;;;;;;6.72;1.77;;;5.30;86.40;;;;;;5090274;28;20040;-73
2021/01/26 12:28:47;;;;;;;5.55;1.23;;;5.60;87.00;;;;;;5089068;28;20464;-73
2021/01/26 12:31:13;;;;;;;4.05;1.85;;;5.30;86.20;;;;;;5086964;28;20131;-73
2021/01/26 12:33:40;;;;;;;6.07;1.90;;;5.40;86.50;;;;;;5090393;28;20060;-72
2021/01/26 12:36:06;;;;;;;4.88;1.50;;;5.60;86.30;;;;;;5090301;28;20753;-73
2021/01/26 12:38:33;;;;;;;5.13;1.55;;;5.40;85.20;;;;;;5090353;28;20131;-73
2021/01/26 12:40:59;;;;;;;3.97;1.77;;;5.30;85.50;;;;;;5090629;28;20075;-72
2021/01/26 12:43:25;;;;;;;6.47;1.67;;;5.30;85.10;;;;;;5089840;28;20400;-74
2021/01/26 12:45:52;;;;;;;6.78;1.90;;;5.30;84.80;;;;;;5091574;27;20047;-72
2021/01/26 12:48:18;;;;;;;4.95;2.25;;;5.30;85.20;;;;;;5090768;28;20130;-73
2021/01/26 12:50:46;;;;;;;8.00;1.80;;;5.40;85.50;;;;;;5087280;28;20048;-71
2021/01/26 12:53:14;;;;;;;7.80;2.33;;;5.40;85.20;;;;;;5091914;28;20054;-73
2021/01/26 12:55:40;;;;;;;4.30;1.77;;;5.40;84.70;;;;;;5088288;27;20093;-73
2021/01/26 12:58:08;;;;;;;4.20;2.08;;;5.50;84.20;;;;;;5092393;28;20120;-74
2021/01/26 13:00:35;;;;;;;6.60;1.75;;;5.50;84.50;;;;;;5088088;27;20048;-73
2021/01/26 13:03:02;;;;;;;3.42;1.33;;;5.40;83.70;;;;;;5088253;28;20135;-71
2021/01/26 13:05:29;;;;;;;4.85;1.30;;;5.40;83.80;;;;;;5086326;28;20057;-73
2021/01/26 13:07:57;;;;;;;4.57;1.77;;;5.30;83.20;;;;;;5097140;28;20138;-73
2021/01/26 13:10:24;;;;;;;3.38;1.55;;;5.30;84.00;;;;;;5094200;27;20753;-73
2021/01/26 13:12:51;;;;;;;4.18;1.67;;;5.30;83.20;;;;;;5088383;28;20076;-72
2021/01/26 13:15:19;;;;;;;5.95;1.88;;;5.30;83.70;;;;;;5089968;27;20147;-73
2021/01/26 13:17:45;;;;;;;6.18;1.80;;;5.40;83.00;;;;;;5090030;28;20083;-75
2021/01/26 13:20:12;;;;;;;11.23;2.03;;;5.40;82.80;;;;;;5100304;28;20047;-74
2021/01/26 13:22:40;;;;;;;3.00;1.50;;;5.40;83.10;;;;;;5112490;28;20071;-73
2021/01/26 13:25:07;;;;;;;3.75;1.85;;;5.20;82.20;;;;;;5108463;27;20040;-75
2021/01/26 13:27:34;;;;;;;7.20;1.75;;;5.50;82.60;;;;;;5108048;28;20126;-74
2021/01/26 13:30:02;;;;;;;5.57;1.63;;;5.40;82.60;;;;;;5112853;28;20048;-74
2021/01/26 13:32:28;;;;;;;4.82;2.05;;;5.40;81.60;;;;;;5103278;28;20055;-75